Confidence, Illinois
Current Conditions -  °F | °C
As of 9:15 AM on Thursday 23 Oct 2014 (Local Time) from K1H2 Reporting Station
Clear Clear  
Wind Chill: 46°   Ceiling: Unl
Heat Index: 48°   Visibility: 10mi
Dew Point: 42°   Wind: 5mph
Humidity: 78%   Direction: 160°SSE
Pressure: 30.25"   Gusts: NA
Location:  38.9907°N, 88.9478°W
Report Text: K1H2 231415Z AUTO 16004KT 10SM CLR 09/05 A3025 RMK AO2 T00900053
Loading
Personal Weather Stations






























Interactive Weather Map
Tropical Storm Tracking
New forecast layout! Learn more

10-Day Weather Forecast

Advertisements
Track Severe Weather on mobile